Time;durP1;ratioP1;P1;durP2;ratioP2;P2;SDS_P1;SDS_P2;PMS_P1;PMS_P2;Temp;Humidity;BMP_temperature;BMP_pressure;BME280_temperature;BME280_humidity;BME280_pressure;Samples;Min_cycle;Max_cycle;Signal;HPM_P1;HPM_P2
2021/01/28 00:00:11;;;;;;;17.10;11.75;;;;;;;0.55;100.00;95794.13;989337;30;20023;-56
2021/01/28 00:00:42;;;;;;;18.20;12.55;;;;;;;0.60;100.00;95787.72;995264;29;20082;-55
2021/01/28 00:01:13;;;;;;;18.48;13.05;;;;;;;0.56;100.00;95790.56;993073;29;20026;-55
2021/01/28 00:01:44;;;;;;;19.80;13.77;;;;;;;0.58;100.00;95784.41;989261;30;20041;-55
2021/01/28 00:02:14;;;;;;;16.40;11.77;;;;;;;0.61;100.00;95784.13;989258;29;20471;-55
2021/01/28 00:02:45;;;;;;;17.55;11.55;;;;;;;0.59;100.00;95778.22;996794;29;20031;-55
2021/01/28 00:03:16;;;;;;;18.48;12.40;;;;;;;0.60;100.00;95779.88;985603;30;20114;-55
2021/01/28 00:03:47;;;;;;;18.27;12.48;;;;;;;0.59;100.00;95780.81;989267;30;20028;-55
2021/01/28 00:04:18;;;;;;;17.88;12.68;;;;;;;0.60;100.00;95785.94;993090;29;20541;-55
2021/01/28 00:04:49;;;;;;;16.42;11.40;;;;;;;0.60;100.00;95785.09;997053;29;20041;-55
2021/01/28 00:05:20;;;;;;;17.15;12.20;;;;;;;0.60;100.00;95782.50;989309;29;20022;-55
2021/01/28 00:05:51;;;;;;;17.25;11.73;;;;;;;0.62;100.00;95783.19;988881;30;20024;-54
2021/01/28 00:06:22;;;;;;;17.52;11.93;;;;;;;0.58;100.00;95787.84;985488;30;20016;-54
2021/01/28 00:06:52;;;;;;;17.38;11.95;;;;;;;0.59;100.00;95780.81;992834;29;20015;-55
2021/01/28 00:07:23;;;;;;;17.80;12.30;;;;;;;0.56;100.00;95782.72;989212;30;20019;-54
2021/01/28 00:07:54;;;;;;;17.23;12.00;;;;;;;0.59;100.00;95789.47;989306;30;20020;-55
2021/01/28 00:08:25;;;;;;;19.20;12.23;;;;;;;0.59;100.00;95788.66;996766;29;20109;-56
2021/01/28 00:08:56;;;;;;;16.10;11.80;;;;;;;0.61;100.00;95782.38;993064;29;20046;-54
2021/01/28 00:09:26;;;;;;;17.15;12.07;;;;;;;0.40;100.00;95752.66;1000535;29;20070;-55
2021/01/28 00:09:57;;;;;;;18.52;12.48;;;;;;;0.60;100.00;95787.72;981777;30;20552;-55
2021/01/28 00:10:29;;;;;;;16.23;11.77;;;;;;;0.62;100.00;95783.19;981981;30;20498;-54
2021/01/28 00:11:00;;;;;;;18.02;12.55;;;;;;;0.62;100.00;95788.44;982330;30;20040;-54
2021/01/28 00:11:30;;;;;;;16.50;11.63;;;;;;;0.61;100.00;95782.38;986553;29;20034;-54
2021/01/28 00:12:01;;;;;;;18.13;11.95;;;;;;;0.64;100.00;95776.06;992758;29;20035;-55
2021/01/28 00:12:32;;;;;;;18.98;13.13;;;;;;;0.65;100.00;95777.75;989310;30;20130;-54
2021/01/28 00:13:03;;;;;;;18.13;12.57;;;;;;;0.63;100.00;95779.63;985632;30;20038;-55
2021/01/28 00:13:34;;;;;;;18.27;12.75;;;;;;;0.63;100.00;95772.63;985699;30;20111;-55
2021/01/28 00:14:05;;;;;;;18.33;11.73;;;;;;;0.61;100.00;95776.31;985503;30;20039;-55
2021/01/28 00:14:36;;;;;;;18.02;12.23;;;;;;;0.60;100.00;95774.66;985525;30;20031;-55
2021/01/28 00:15:07;;;;;;;18.63;12.63;;;;;;;0.63;100.00;95777.84;989315;30;20036;-55
2021/01/28 00:15:38;;;;;;;17.52;12.07;;;;;;;0.65;100.00;95782.97;987329;30;20027;-55
2021/01/28 00:16:09;;;;;;;18.10;12.23;;;;;;;0.66;100.00;95777.63;985551;30;20476;-55
2021/01/28 00:16:40;;;;;;;16.77;11.93;;;;;;;0.64;100.00;95781.28;981843;30;20119;-55
2021/01/28 00:17:11;;;;;;;17.35;11.77;;;;;;;0.63;100.00;95783.09;985616;30;20031;-55
2021/01/28 00:17:42;;;;;;;18.65;11.90;;;;;;;0.67;100.00;95783.69;998904;29;20026;-54
2021/01/28 00:18:13;;;;;;;19.25;12.45;;;;;;;0.63;100.00;95779.63;992987;29;20570;-55
2021/01/28 00:18:44;;;;;;;16.48;11.45;;;;;;;0.64;100.00;95782.13;992656;29;20071;-54
2021/01/28 00:19:15;;;;;;;16.42;11.43;;;;;;;0.66;100.00;95779.38;993062;29;20031;-55
2021/01/28 00:19:46;;;;;;;18.67;12.57;;;;;;;0.67;100.00;95781.06;993458;29;20102;-55
2021/01/28 00:20:27;;;;;;;16.65;11.55;;;;;;;0.67;100.00;95781.88;1000436;29;20040;-55
2021/01/28 00:20:58;;;;;;;16.95;11.85;;;;;;;0.64;100.00;95779.50;999010;29;20030;-55
2021/01/28 00:21:29;;;;;;;17.83;12.20;;;;;;;0.66;100.00;95774.16;989797;29;20027;-55
2021/01/28 00:22:00;;;;;;;17.15;12.32;;;;;;;0.68;100.00;95777.47;989253;30;20046;-55
2021/01/28 00:22:31;;;;;;;17.95;12.07;;;;;;;0.67;100.00;95770.63;990001;29;20027;-55
2021/01/28 00:23:02;;;;;;;17.38;11.55;;;;;;;0.66;100.00;95775.03;985618;30;20031;-55
2021/01/28 00:23:33;;;;;;;17.95;11.80;;;;;;;0.68;100.00;95770.50;985615;30;20475;-54
2021/01/28 00:24:05;;;;;;;16.70;11.55;;;;;;;0.66;100.00;95772.41;989221;30;20035;-55
2021/01/28 00:24:36;;;;;;;16.52;11.52;;;;;;;0.66;100.00;95774.16;983173;30;20059;-54
2021/01/28 00:25:07;;;;;;;16.80;11.73;;;;;;;0.63;100.00;95772.63;985567;30;20165;-55
2021/01/28 00:25:38;;;;;;;16.80;11.23;;;;;;;0.63;100.00;95769.16;992973;29;20035;-54
2021/01/28 00:26:09;;;;;;;16.50;11.70;;;;;;;0.62;100.00;95772.75;996769;29;20112;-54
2021/01/28 00:26:40;;;;;;;17.15;11.13;;;;;;;0.68;100.00;95767.03;992902;29;20117;-55
2021/01/28 00:27:11;;;;;;;16.40;11.48;;;;;;;0.72;100.00;95773.69;981883;30;20449;-55
2021/01/28 00:27:43;;;;;;;16.33;11.75;;;;;;;0.68;100.00;95775.72;987679;30;20028;-54
2021/01/28 00:28:16;;;;;;;19.20;11.90;;;;;;;0.64;100.00;95770.84;993103;29;20379;-54
2021/01/28 00:28:47;;;;;;;18.20;12.55;;;;;;;0.67;100.00;95770.63;992906;29;20033;-55
2021/01/28 00:29:17;;;;;;;16.60;12.05;;;;;;;0.70;100.00;95776.44;1000547;29;20373;-54
2021/01/28 00:29:48;;;;;;;17.08;12.13;;;;;;;0.67;100.00;95760.97;993027;29;20019;-54
2021/01/28 00:30:22;;;;;;;17.27;11.90;;;;;;;0.75;100.00;95768.25;985569;30;20094;-55
2021/01/28 00:30:53;;;;;;;17.27;11.50;;;;;;;0.73;100.00;95773.59;988538;30;20027;-55
2021/01/28 00:31:24;;;;;;;18.15;11.38;;;;;;;0.65;100.00;95756.84;989270;30;20031;-54
2021/01/28 00:31:55;;;;;;;18.73;12.27;;;;;;;0.70;100.00;95770.38;997540;29;20010;-55
2021/01/28 00:32:25;;;;;;;17.30;11.98;;;;;;;0.67;100.00;95773.22;996722;29;20041;-54
2021/01/28 00:32:56;;;;;;;16.33;11.70;;;;;;;0.71;100.00;95779.88;985267;30;20016;-55
2021/01/28 00:33:27;;;;;;;16.52;11.50;;;;;;;0.67;100.00;95773.22;985641;30;20035;-56
2021/01/28 00:33:58;;;;;;;18.02;11.68;;;;;;;0.69;100.00;95773.94;992996;29;20022;-55
2021/01/28 00:34:29;;;;;;;16.55;12.15;;;;;;;0.70;100.00;95770.38;989331;30;20035;-56
2021/01/28 00:34:59;;;;;;;17.55;11.75;;;;;;;0.68;100.00;95765.28;992829;29;20026;-55
2021/01/28 00:35:34;;;;;;;17.40;11.90;;;;;;;0.71;100.00;95772.03;990001;29;20543;-56
2021/01/28 00:36:05;;;;;;;17.52;11.90;;;;;;;0.68;100.00;95769.66;974589;30;20460;-55
2021/01/28 00:36:36;;;;;;;17.05;11.60;;;;;;;0.68;100.00;95767.03;985605;30;20028;-55
2021/01/28 00:37:07;;;;;;;18.58;11.57;;;;;;;0.69;100.00;95764.31;989058;30;20115;-55
2021/01/28 00:37:38;;;;;;;17.23;11.80;;;;;;;0.72;100.00;95768.47;989159;29;20015;-54
2021/01/28 00:38:12;;;;;;;18.55;11.55;;;;;;;0.69;100.00;95760.88;981836;30;20020;-56
2021/01/28 00:38:43;;;;;;;17.52;11.05;;;;;;;0.68;100.00;95761.81;985610;30;20016;-55
2021/01/28 00:39:14;;;;;;;17.48;11.98;;;;;;;0.67;100.00;95773.22;984765;30;20040;-55
2021/01/28 00:39:44;;;;;;;17.17;11.77;;;;;;;0.71;100.00;95761.56;986675;29;20020;-55
2021/01/28 00:40:15;;;;;;;16.60;12.23;;;;;;;0.70;100.00;95759.94;978226;30;20444;-55
2021/01/28 00:40:46;;;;;;;17.40;11.75;;;;;;;0.70;100.00;95767.78;985531;30;20466;-55
2021/01/28 00:41:17;;;;;;;17.67;11.90;;;;;;;0.66;100.00;95759.34;985362;30;20384;-55
2021/01/28 00:41:48;;;;;;;15.55;11.10;;;;;;;0.65;100.00;95762.88;974547;30;20097;-55
2021/01/28 00:42:19;;;;;;;15.70;11.27;;;;;;;0.68;100.00;95765.28;985478;30;20411;-55
2021/01/28 00:42:50;;;;;;;17.92;12.32;;;;;;;0.70;100.00;95763.38;993073;29;20023;-55
2021/01/28 00:43:21;;;;;;;17.02;11.88;;;;;;;0.70;100.00;95759.94;992896;29;20114;-56
2021/01/28 00:43:52;;;;;;;14.85;10.48;;;;;;;0.73;100.00;95763.13;981518;30;20047;-55
2021/01/28 00:44:23;;;;;;;16.10;11.35;;;;;;;0.74;100.00;95758.72;989277;29;20488;-54
2021/01/28 00:44:56;;;;;;;17.00;12.05;;;;;;;0.70;100.00;95759.94;992944;29;20095;-54
2021/01/28 00:45:28;;;;;;;16.17;10.65;;;;;;;0.72;100.00;95758.84;985309;30;20042;-55
2021/01/28 00:46:03;;;;;;;18.23;11.63;;;;;;;0.75;100.00;95757.78;989170;30;20038;-54
2021/01/28 00:46:33;;;;;;;16.40;11.02;;;;;;;0.74;100.00;95758.72;990468;29;20065;-54
2021/01/28 00:47:04;;;;;;;17.90;11.45;;;;;;;0.75;100.00;95756.00;978205;30;20055;-55
2021/01/28 00:47:35;;;;;;;17.20;11.63;;;;;;;0.76;100.00;95759.44;985399;30;20036;-55
2021/01/28 00:48:06;;;;;;;17.80;12.35;;;;;;;0.75;100.00;95755.19;992875;29;20098;-55
2021/01/28 00:48:37;;;;;;;16.55;10.98;;;;;;;0.78;100.00;95760.13;996729;29;20034;-54
2021/01/28 00:49:08;;;;;;;16.88;11.30;;;;;;;0.76;100.00;95764.66;989276;30;20013;-56
2021/01/28 00:49:39;;;;;;;16.90;11.15;;;;;;;0.75;100.00;95758.59;993270;29;20553;-54
2021/01/28 00:50:11;;;;;;;15.88;11.32;;;;;;;0.71;100.00;95758.97;992359;29;20033;-55
2021/01/28 00:50:42;;;;;;;17.33;11.88;;;;;;;0.73;100.00;95759.66;989590;29;20077;-56
2021/01/28 00:51:13;;;;;;;16.52;11.68;;;;;;;0.76;100.00;95751.59;992939;29;20023;-55
2021/01/28 00:51:43;;;;;;;16.77;11.43;;;;;;;0.75;100.00;95753.38;989141;30;20072;-54
2021/01/28 00:52:14;;;;;;;15.45;11.00;;;;;;;0.79;100.00;95758.38;985499;30;20379;-55
2021/01/28 00:52:45;;;;;;;16.45;11.40;;;;;;;0.77;100.00;95755.88;985665;30;20415;-54
2021/01/28 00:53:17;;;;;;;16.40;11.05;;;;;;;0.74;100.00;95756.13;981849;30;20052;-54
2021/01/28 00:53:48;;;;;;;15.38;11.07;;;;;;;0.74;100.00;95753.50;981705;30;20024;-54
2021/01/28 00:54:19;;;;;;;16.48;11.75;;;;;;;0.78;100.00;95754.09;981953;30;20488;-55
2021/01/28 00:54:50;;;;;;;16.15;11.13;;;;;;;0.73;100.00;95754.44;992391;29;20027;-54
2021/01/28 00:55:21;;;;;;;17.45;11.52;;;;;;;0.72;100.00;95747.56;978220;30;20040;-54
2021/01/28 00:55:52;;;;;;;17.50;11.45;;;;;;;0.76;100.00;95756.81;989097;30;20148;-54
2021/01/28 00:56:23;;;;;;;15.70;10.98;;;;;;;0.72;100.00;95752.78;992829;29;20042;-55
2021/01/28 00:56:54;;;;;;;16.55;11.60;;;;;;;0.75;100.00;95752.56;981925;30;20520;-54
2021/01/28 00:57:25;;;;;;;16.25;10.63;;;;;;;0.73;100.00;95757.06;985342;30;20131;-54
2021/01/28 00:57:56;;;;;;;17.52;11.38;;;;;;;0.73;100.00;95754.44;992525;29;20514;-55
2021/01/28 00:58:27;;;;;;;15.30;10.82;;;;;;;0.73;100.00;95757.06;978159;30;20171;-56
2021/01/28 00:58:58;;;;;;;16.58;11.15;;;;;;;0.73;100.00;95757.06;989338;29;20110;-54
2021/01/28 00:59:29;;;;;;;17.35;11.32;;;;;;;0.75;100.00;95755.19;985585;30;20408;-55
2021/01/28 01:00:00;;;;;;;17.50;11.57;;;;;;;0.75;100.00;95761.22;985416;30;20036;-55
2021/01/28 01:00:34;;;;;;;15.98;11.38;;;;;;;0.74;100.00;95751.72;985476;30;20036;-55
2021/01/28 01:01:05;;;;;;;15.30;10.88;;;;;;;0.76;100.00;95759.44;985594;30;20027;-54
2021/01/28 01:01:36;;;;;;;17.58;12.20;;;;;;;0.72;100.00;95753.63;996623;29;20462;-55
2021/01/28 01:02:06;;;;;;;16.00;11.30;;;;;;;0.72;100.00;95763.25;989130;30;20062;-55
2021/01/28 01:02:37;;;;;;;17.10;11.65;;;;;;;0.76;100.00;95759.44;981764;30;20029;-54
2021/01/28 01:03:09;;;;;;;15.43;10.88;;;;;;;0.77;100.00;95762.88;985552;30;20046;-55
2021/01/28 01:03:40;;;;;;;16.17;11.32;;;;;;;0.74;100.00;95756.94;992984;29;20106;-54
2021/01/28 01:04:11;;;;;;;15.77;11.05;;;;;;;0.78;100.00;95767.16;985846;30;20031;-55
2021/01/28 01:04:41;;;;;;;17.00;11.70;;;;;;;0.77;100.00;95766.34;981686;30;20354;-55
2021/01/28 01:05:14;;;;;;;15.75;10.90;;;;;;;0.76;100.00;95764.66;985704;30;20499;-55
2021/01/28 01:05:45;;;;;;;16.45;10.95;;;;;;;0.77;100.00;95765.47;985523;30;20027;-55
2021/01/28 01:06:16;;;;;;;14.73;10.23;;;;;;;0.77;100.00;95765.47;992841;29;20058;-55
2021/01/28 01:06:47;;;;;;;15.27;10.88;;;;;;;0.73;100.00;95767.50;989098;30;20122;-55
2021/01/28 01:07:18;;;;;;;15.75;10.60;;;;;;;0.75;100.00;95760.41;989503;29;20031;-55
2021/01/28 01:07:51;;;;;;;15.75;11.05;;;;;;;0.74;100.00;95764.78;992751;29;20506;-55
2021/01/28 01:08:25;;;;;;;15.70;10.95;;;;;;;0.77;100.00;95771.56;988765;30;20019;-57
2021/01/28 01:08:56;;;;;;;15.82;10.63;;;;;;;0.77;100.00;95762.88;992853;29;20039;-54
2021/01/28 01:09:27;;;;;;;15.20;10.77;;;;;;;0.74;100.00;95769.19;989227;29;20084;-55
2021/01/28 01:09:58;;;;;;;15.20;11.05;;;;;;;0.72;100.00;95755.41;986068;30;20078;-54
2021/01/28 01:10:48;;;;;;;15.00;10.52;;;;;;;0.81;100.00;95761.69;997196;29;20553;-55
2021/01/28 01:11:19;;;;;;;18.55;9.95;;;;;;;0.80;100.00;95754.78;997429;29;20061;-54
2021/01/28 01:11:51;;;;;;;14.98;10.38;;;;;;;0.77;100.00;95763.72;989831;30;20033;-54
2021/01/28 01:12:22;;;;;;;14.85;10.45;;;;;;;0.72;100.00;95752.78;982476;30;20044;-54
2021/01/28 01:12:54;;;;;;;14.15;10.23;;;;;;;0.82;100.00;95763.34;1000949;29;20026;-55
2021/01/28 01:13:27;;;;;;;14.38;10.13;;;;;;;0.78;100.00;95764.53;997372;29;20119;-56
2021/01/28 01:13:58;;;;;;;14.95;10.30;;;;;;;0.75;100.00;95763.00;978948;30;20025;-54
2021/01/28 01:14:29;;;;;;;15.20;10.77;;;;;;;0.78;100.00;95764.53;982393;30;20504;-54
2021/01/28 01:15:00;;;;;;;15.48;10.88;;;;;;;0.80;100.00;95768.72;989778;30;20045;-55
2021/01/28 01:15:31;;;;;;;15.05;10.52;;;;;;;0.80;100.00;95758.25;997299;29;20451;-54
2021/01/28 01:16:05;;;;;;;16.85;11.05;;;;;;;0.80;100.00;95760.03;1001257;29;20030;-55
2021/01/28 01:16:36;;;;;;;13.77;9.88;;;;;;;0.79;100.00;95767.03;993447;29;20042;-55
2021/01/28 01:17:07;;;;;;;14.32;9.52;;;;;;;0.79;100.00;95761.81;985532;30;20078;-56
2021/01/28 01:17:38;;;;;;;14.68;10.23;;;;;;;0.81;100.00;95772.16;978607;30;20036;-55
2021/01/28 01:18:10;;;;;;;15.90;10.30;;;;;;;0.85;100.00;95773.56;986067;30;20020;-56
2021/01/28 01:18:40;;;;;;;15.90;10.38;;;;;;;0.80;100.00;95771.31;991749;29;20034;-55
2021/01/28 01:19:12;;;;;;;13.88;10.05;;;;;;;0.81;100.00;95770.34;993468;29;20521;-55
2021/01/28 01:19:43;;;;;;;15.70;10.07;;;;;;;0.82;100.00;95768.56;1001037;29;20448;-55
2021/01/28 01:20:15;;;;;;;14.38;10.20;;;;;;;0.81;100.00;95766.91;993567;29;20102;-55
2021/01/28 01:20:46;;;;;;;14.45;10.05;;;;;;;0.82;100.00;95765.94;993547;29;20442;-55
2021/01/28 01:21:17;;;;;;;14.40;10.45;;;;;;;0.77;100.00;95768.94;985971;30;20114;-54
2021/01/28 01:21:48;;;;;;;14.88;10.38;;;;;;;0.83;100.00;95767.63;990230;29;20546;-54
2021/01/28 01:22:19;;;;;;;13.75;10.00;;;;;;;0.82;100.00;95764.19;986169;30;20023;-55
2021/01/28 01:22:50;;;;;;;12.93;8.90;;;;;;;0.81;100.00;95764.31;986170;30;20038;-55
2021/01/28 01:23:21;;;;;;;12.70;9.05;;;;;;;0.81;100.00;95767.75;989862;30;20111;-56
2021/01/28 01:23:52;;;;;;;13.43;9.90;;;;;;;0.85;100.00;95765.72;986266;30;20023;-55
2021/01/28 01:24:24;;;;;;;13.68;9.63;;;;;;;0.83;100.00;95763.22;986128;30;20044;-54
2021/01/28 01:24:55;;;;;;;13.68;9.88;;;;;;;0.82;100.00;95758.13;989435;30;20037;-54
2021/01/28 01:25:26;;;;;;;14.40;9.82;;;;;;;0.87;100.00;95762.03;989858;30;20050;-54
2021/01/28 01:25:58;;;;;;;13.95;10.05;;;;;;;0.87;100.00;95759.44;989806;30;20439;-55
2021/01/28 01:26:29;;;;;;;15.55;9.93;;;;;;;0.84;100.00;95762.28;989949;30;20551;-56
2021/01/28 01:26:59;;;;;;;13.38;9.88;;;;;;;0.85;100.00;95758.69;982321;30;20160;-54
2021/01/28 01:27:30;;;;;;;13.95;9.82;;;;;;;0.86;100.00;95763.00;989665;29;20031;-54
2021/01/28 01:28:01;;;;;;;15.15;10.40;;;;;;;0.83;100.00;95763.22;986236;30;20047;-54
2021/01/28 01:28:32;;;;;;;13.60;9.43;;;;;;;0.82;100.00;95758.13;986529;30;20039;-55
2021/01/28 01:29:03;;;;;;;12.88;9.13;;;;;;;0.84;100.00;95767.50;989821;30;20034;-55
2021/01/28 01:29:34;;;;;;;13.43;9.32;;;;;;;0.78;100.00;95764.53;990088;29;20039;-54
2021/01/28 01:30:06;;;;;;;13.90;9.63;;;;;;;0.81;100.00;95759.91;993513;29;20105;-55
2021/01/28 01:30:37;;;;;;;13.15;9.43;;;;;;;0.85;100.00;95761.31;986100;30;20066;-55
2021/01/28 01:31:08;;;;;;;14.10;9.88;;;;;;;0.87;100.00;95761.19;997295;29;20018;-53
2021/01/28 01:31:39;;;;;;;12.88;9.38;;;;;;;0.85;100.00;95763.09;996866;29;20450;-54
2021/01/28 01:32:10;;;;;;;15.70;10.20;;;;;;;0.87;100.00;95756.81;997453;29;20026;-55
2021/01/28 01:32:40;;;;;;;13.93;9.32;;;;;;;0.89;100.00;95754.09;986071;30;20032;-53
2021/01/28 01:33:12;;;;;;;14.25;9.65;;;;;;;0.88;100.00;95755.84;1000884;29;20026;-53
2021/01/28 01:33:43;;;;;;;13.68;9.52;;;;;;;0.90;100.00;95751.31;997118;29;20037;-53
2021/01/28 01:34:16;;;;;;;13.50;9.32;;;;;;;0.88;100.00;95752.41;993584;29;20030;-54
2021/01/28 01:34:47;;;;;;;14.20;9.30;;;;;;;0.92;100.00;95754.69;985632;30;20153;-53
2021/01/28 01:35:19;;;;;;;15.07;10.40;;;;;;;0.91;100.00;95750.38;997166;29;20041;-53
2021/01/28 01:35:50;;;;;;;13.95;9.10;;;;;;;0.92;100.00;95757.28;997205;29;20022;-53
2021/01/28 01:36:20;;;;;;;14.63;9.60;;;;;;;0.89;100.00;95757.53;986068;30;20032;-53
2021/01/28 01:36:51;;;;;;;13.07;9.50;;;;;;;0.91;100.00;95753.00;993703;29;20367;-53
2021/01/28 01:37:22;;;;;;;12.25;8.73;;;;;;;0.90;100.00;95745.28;993531;29;20027;-53
2021/01/28 01:37:54;;;;;;;12.30;8.95;;;;;;;0.87;100.00;95751.59;989923;29;20210;-54
2021/01/28 01:38:25;;;;;;;13.43;9.43;;;;;;;0.84;100.00;95753.63;1000763;29;20047;-55
2021/01/28 01:38:56;;;;;;;12.23;8.65;;;;;;;0.86;100.00;95746.47;993069;29;20107;-53
2021/01/28 01:39:27;;;;;;;12.57;9.02;;;;;;;0.82;100.00;95743.28;997058;29;20030;-52
2021/01/28 01:39:57;;;;;;;12.82;8.57;;;;;;;0.84;100.00;95751.81;993477;29;20097;-53
2021/01/28 01:40:39;;;;;;;12.60;8.68;;;;;;;0.79;100.00;95753.97;982491;30;20029;-54
2021/01/28 01:41:10;;;;;;;12.65;8.90;;;;;;;0.81;100.00;95746.00;993589;29;20373;-54
2021/01/28 01:41:41;;;;;;;13.88;9.57;;;;;;;0.82;100.00;95756.34;1000882;29;20028;-53
2021/01/28 01:42:11;;;;;;;13.35;9.00;;;;;;;0.85;100.00;95750.84;993393;29;20019;-54
2021/01/28 01:42:46;;;;;;;11.85;8.35;;;;;;;0.80;100.00;95741.72;986295;30;20058;-52
2021/01/28 01:43:42;;;;;;;13.80;9.38;;;;;;;0.86;100.00;95755.16;986058;30;20038;-53
2021/01/28 01:54:52;;;;;;;12.90;8.88;;;;;;;0.79;100.00;95733.06;983262;30;20035;-53
2021/01/28 01:55:23;;;;;;;14.70;9.13;;;;;;;0.79;100.00;95730.44;985239;30;20069;-54
2021/01/28 01:55:59;;;;;;;13.98;9.13;;;;;;;0.80;100.00;95732.13;993299;29;20039;-55
2021/01/28 01:56:39;;;;;;;12.50;8.63;;;;;;;0.82;100.00;95732.81;982243;30;20032;-53
2021/01/28 01:57:15;;;;;;;12.82;9.02;;;;;;;0.83;100.00;95731.03;989015;30;20479;-54
2021/01/28 01:57:46;;;;;;;12.02;8.05;;;;;;;0.85;100.00;95731.75;977848;30;20377;-54
2021/01/28 01:58:28;;;;;;;14.77;9.35;;;;;;;0.83;100.00;95729.25;982127;30;20051;-54
2021/01/28 01:59:10;;;;;;;12.45;8.60;;;;;;;0.83;100.00;95729.25;986064;30;20554;-53
2021/01/28 01:59:51;;;;;;;11.90;7.95;;;;;;;0.79;100.00;95725.22;982033;30;20120;-54
2021/01/28 02:00:22;;;;;;;12.70;8.50;;;;;;;0.83;100.00;95728.41;985826;30;20085;-53
2021/01/28 02:00:53;;;;;;;13.98;9.18;;;;;;;0.85;100.00;95732.56;985862;30;20047;-53
2021/01/28 02:01:25;;;;;;;12.90;8.48;;;;;;;0.83;100.00;95724.00;989326;30;20239;-53
2021/01/28 02:02:07;;;;;;;13.38;8.93;;;;;;;0.80;100.00;95729.50;978518;30;20565;-52
2021/01/28 02:02:39;;;;;;;12.43;8.90;;;;;;;0.83;100.00;95744.94;985852;30;20036;-54
2021/01/28 02:03:11;;;;;;;13.18;8.75;;;;;;;0.84;100.00;95730.91;978445;30;20044;-54
2021/01/28 02:03:42;;;;;;;12.70;8.65;;;;;;;0.84;100.00;95730.09;978278;30;20032;-53
2021/01/28 02:04:13;;;;;;;13.80;8.70;;;;;;;0.81;100.00;95731.16;993210;29;20031;-53
2021/01/28 02:04:44;;;;;;;14.70;8.93;;;;;;;0.80;100.00;95731.28;982128;30;20035;-53
2021/01/28 02:05:18;;;;;;;14.05;8.70;;;;;;;0.79;100.00;95733.06;989427;30;20042;-55
2021/01/28 02:06:14;;;;;;;13.43;8.52;;;;;;;0.80;100.00;95729.50;981985;30;20036;-54
2021/01/28 02:06:49;;;;;;;12.85;8.63;;;;;;;0.81;100.00;95725.94;978391;30;20067;-53
2021/01/28 02:07:23;;;;;;;12.70;9.02;;;;;;;0.81;100.00;95731.16;989293;30;20217;-53
2021/01/28 02:07:54;;;;;;;13.68;8.65;;;;;;;0.83;100.00;95731.03;985623;30;20474;-54
2021/01/28 02:08:25;;;;;;;12.65;8.73;;;;;;;0.80;100.00;95724.28;985933;30;20387;-55
2021/01/28 02:08:56;;;;;;;14.38;9.02;;;;;;;0.75;100.00;95721.19;993259;29;20034;-54
2021/01/28 02:09:28;;;;;;;13.07;8.88;;;;;;;0.76;100.00;95725.47;982084;30;20455;-53
2021/01/28 02:09:59;;;;;;;12.32;8.40;;;;;;;0.75;100.00;95716.78;981824;30;20200;-53
2021/01/28 02:10:30;;;;;;;13.68;9.27;;;;;;;0.79;100.00;95720.00;989455;30;20104;-54
2021/01/28 02:11:05;;;;;;;13.98;9.63;;;;;;;0.79;100.00;95725.22;982175;30;20488;-54
2021/01/28 02:11:37;;;;;;;13.60;9.32;;;;;;;0.74;100.00;95719.53;982109;30;20028;-54
2021/01/28 02:12:09;;;;;;;16.48;9.10;;;;;;;0.72;100.00;95726.66;985702;30;20047;-53
2021/01/28 02:12:39;;;;;;;13.35;9.07;;;;;;;0.73;100.00;95723.94;985785;30;20104;-54
2021/01/28 02:13:10;;;;;;;12.95;9.10;;;;;;;0.77;100.00;95719.28;982192;30;20493;-53
2021/01/28 02:13:43;;;;;;;12.73;8.63;;;;;;;0.74;100.00;95719.53;978482;30;20036;-53
2021/01/28 02:14:15;;;;;;;12.35;8.50;;;;;;;0.78;100.00;95723.53;985745;30;20036;-53
2021/01/28 02:14:47;;;;;;;13.70;9.13;;;;;;;0.75;100.00;95723.81;989384;30;20034;-53
2021/01/28 02:15:18;;;;;;;12.75;8.77;;;;;;;0.73;100.00;95717.84;982099;30;20032;-53
2021/01/28 02:15:49;;;;;;;11.90;8.65;;;;;;;0.75;100.00;95723.81;974792;30;20590;-53
2021/01/28 02:16:22;;;;;;;13.52;8.82;;;;;;;0.71;100.00;95720.59;988660;30;20051;-53
2021/01/28 02:16:56;;;;;;;13.40;9.10;;;;;;;0.70;100.00;95718.94;985912;30;20070;-54
2021/01/28 02:17:27;;;;;;;13.80;9.85;;;;;;;0.74;100.00;95729.97;985871;30;20103;-55
2021/01/28 02:17:58;;;;;;;13.52;8.73;;;;;;;0.77;100.00;95723.66;989417;30;20561;-52
2021/01/28 02:18:29;;;;;;;11.68;8.35;;;;;;;0.69;100.00;95725.09;978559;30;20040;-54
2021/01/28 02:19:00;;;;;;;12.60;8.65;;;;;;;0.72;100.00;95722.25;989589;30;20031;-54
2021/01/28 02:19:51;;;;;;;15.23;8.70;;;;;;;0.73;100.00;95725.69;993488;29;20544;-53
2021/01/28 02:20:36;;;;;;;12.65;8.80;;;;;;;0.72;100.00;95722.25;989526;30;20145;-54
2021/01/28 02:21:20;;;;;;;14.52;8.20;;;;;;;0.70;100.00;95724.16;978934;30;20554;-52
2021/01/28 02:21:51;;;;;;;16.00;9.55;;;;;;;0.73;100.00;95723.06;989576;30;20070;-52
2021/01/28 02:22:31;;;;;;;13.27;8.85;;;;;;;0.73;100.00;95725.69;985677;30;20036;-52
2021/01/28 02:23:08;;;;;;;12.23;8.68;;;;;;;0.73;100.00;95723.06;982263;30;20028;-54
2021/01/28 02:23:45;;;;;;;12.80;8.27;;;;;;;0.72;100.00;95719.66;982361;30;20119;-52
2021/01/28 02:24:26;;;;;;;13.13;8.52;;;;;;;0.74;100.00;95715.13;989457;30;20035;-53
2021/01/28 02:25:22;;;;;;;13.70;9.10;;;;;;;0.78;100.00;95717.50;989626;30;20085;-53
2021/01/28 02:25:53;;;;;;;14.18;8.70;;;;;;;0.79;100.00;95716.56;983119;30;20035;-54
2021/01/28 02:26:25;;;;;;;12.88;8.70;;;;;;;0.77;100.00;95719.28;989441;30;20118;-54
2021/01/28 02:26:56;;;;;;;12.20;7.97;;;;;;;0.75;100.00;95721.19;997106;29;20064;-53
2021/01/28 02:27:27;;;;;;;12.85;8.48;;;;;;;0.76;100.00;95717.63;997023;29;20106;-52
2021/01/28 02:28:02;;;;;;;14.10;8.98;;;;;;;0.74;100.00;95712.50;989651;30;20336;-54
2021/01/28 02:28:33;;;;;;;13.45;9.13;;;;;;;0.77;100.00;95714.06;985706;30;20032;-52
2021/01/28 02:29:06;;;;;;;14.20;9.27;;;;;;;0.76;100.00;95715.00;993240;29;20022;-53
2021/01/28 02:29:36;;;;;;;13.88;9.68;;;;;;;0.72;100.00;95706.56;974979;30;20072;-53
2021/01/28 02:30:08;;;;;;;14.40;9.45;;;;;;;0.74;100.00;95706.47;989592;30;20015;-54
2021/01/28 02:30:39;;;;;;;13.60;9.05;;;;;;;0.74;100.00;95709.06;974860;30;20033;-54
2021/01/28 02:31:10;;;;;;;13.60;8.95;;;;;;;0.77;100.00;95707.97;982392;30;20105;-53
2021/01/28 02:31:43;;;;;;;13.68;9.13;;;;;;;0.76;100.00;95699.31;989787;29;20568;-55
2021/01/28 02:32:14;;;;;;;13.43;9.07;;;;;;;0.79;100.00;95711.34;982229;30;20036;-53
2021/01/28 02:32:47;;;;;;;15.55;10.35;;;;;;;0.77;100.00;95703.59;989349;30;20057;-55
2021/01/28 02:33:37;;;;;;;12.52;8.65;;;;;;;0.72;100.00;95700.53;982220;30;20036;-55
2021/01/28 02:34:07;;;;;;;13.63;9.20;;;;;;;0.76;100.00;95699.31;989593;30;20032;-54
2021/01/28 02:34:41;;;;;;;15.35;9.60;;;;;;;0.71;100.00;95706.69;982130;30;20036;-53
2021/01/28 02:35:12;;;;;;;15.50;10.10;;;;;;;0.70;100.00;95708.50;989476;30;20027;-54
2021/01/28 02:35:43;;;;;;;12.77;9.07;;;;;;;0.72;100.00;95701.34;985955;30;20031;-53
2021/01/28 02:36:13;;;;;;;13.95;9.13;;;;;;;0.74;100.00;95702.06;982221;30;20393;-54
2021/01/28 02:36:49;;;;;;;15.85;9.98;;;;;;;0.78;100.00;95700.03;993159;29;20035;-56
2021/01/28 02:37:21;;;;;;;14.70;9.88;;;;;;;0.79;100.00;95696.47;985744;30;20031;-54
2021/01/28 02:37:52;;;;;;;13.77;9.15;;;;;;;0.78;100.00;95701.81;985981;30;20449;-53
2021/01/28 02:38:23;;;;;;;13.02;8.90;;;;;;;0.72;100.00;95705.75;993401;29;20110;-55
2021/01/28 02:38:54;;;;;;;13.50;9.18;;;;;;;0.72;100.00;95703.13;978400;30;20037;-54
2021/01/28 02:39:27;;;;;;;13.57;9.30;;;;;;;0.74;100.00;95696.81;982174;30;20485;-54
2021/01/28 02:39:58;;;;;;;14.80;9.77;;;;;;;0.75;100.00;95700.28;982161;30;20399;-55
2021/01/28 02:40:29;;;;;;;12.73;8.50;;;;;;;0.72;100.00;95703.13;982106;30;20025;-56
2021/01/28 02:41:00;;;;;;;14.85;9.82;;;;;;;0.69;100.00;95695.53;989354;30;20025;-54
2021/01/28 02:41:31;;;;;;;14.52;10.00;;;;;;;0.70;100.00;95697.22;993309;29;20058;-53